createdAt,value
2018-08-28T03:57:08.443Z,4.78
2018-08-28T03:59:36.517Z,4.40
2018-08-28T04:02:04.997Z,4.80
2018-08-28T04:04:33.067Z,4.40
2018-08-28T04:07:01.336Z,5.43
2018-08-28T04:09:29.446Z,4.90
2018-08-28T04:11:57.479Z,4.50
2018-08-28T04:14:25.549Z,4.55
2018-08-28T04:16:53.702Z,4.50
2018-08-28T04:19:21.702Z,4.70
2018-08-28T04:21:49.771Z,5.05
2018-08-28T04:24:18.150Z,5.97
2018-08-28T04:26:46.306Z,5.55
2018-08-28T04:29:14.419Z,4.95
2018-08-28T04:31:42.568Z,4.90
2018-08-28T04:34:10.654Z,5.15
2018-08-28T04:36:38.711Z,4.60
2018-08-28T04:39:07.351Z,4.20
2018-08-28T04:41:35.483Z,4.17
2018-08-28T04:44:03.555Z,4.50
2018-08-28T04:46:31.631Z,5.05
2018-08-28T04:48:59.808Z,5.53
2018-08-28T04:51:28.283Z,4.72
2018-08-28T04:53:56.348Z,4.70
2018-08-28T04:56:24.472Z,4.70
2018-08-28T04:58:52.652Z,4.37
2018-08-28T05:01:20.758Z,4.28
2018-08-28T05:03:48.764Z,4.35
2018-08-28T05:06:16.826Z,4.80
2018-08-28T05:08:44.903Z,4.80
2018-08-28T05:11:13.192Z,4.12
2018-08-28T05:13:41.263Z,4.50
2018-08-28T05:16:09.443Z,4.40
2018-08-28T05:18:37.457Z,4.70
2018-08-28T05:21:05.580Z,4.60
2018-08-28T05:23:33.631Z,5.08
2018-08-28T05:26:01.843Z,4.72
2018-08-28T05:28:29.978Z,5.87
2018-08-28T05:30:58.070Z,5.12
2018-08-28T05:33:26.131Z,4.65
2018-08-28T05:35:54.234Z,4.62
2018-08-28T05:38:22.270Z,4.10
2018-08-28T05:40:50.367Z,4.40
2018-08-28T05:43:18.424Z,5.05
2018-08-28T05:45:46.452Z,4.78
2018-08-28T05:48:14.588Z,4.30
2018-08-28T05:50:42.638Z,5.00
2018-08-28T05:53:10.839Z,5.30
2018-08-28T05:55:39.020Z,5.10
2018-08-28T05:58:07.088Z,5.28
2018-08-28T06:00:35.142Z,5.10
2018-08-28T06:03:03.557Z,5.30
2018-08-28T06:05:31.729Z,5.40
2018-08-28T06:07:59.878Z,5.42
2018-08-28T06:10:27.966Z,5.50
2018-08-28T06:12:55.994Z,5.40
2018-08-28T06:15:24.015Z,5.70
2018-08-28T06:17:52.145Z,5.50
2018-08-28T06:20:20.408Z,5.40
2018-08-28T06:22:48.358Z,5.65
2018-08-28T06:25:16.382Z,5.80
2018-08-28T06:27:44.470Z,5.33
2018-08-28T06:30:12.629Z,5.03
2018-08-28T06:32:40.735Z,5.78
2018-08-28T06:35:08.770Z,5.83
2018-08-28T06:37:36.895Z,5.93
2018-08-28T06:40:05.034Z,5.55
2018-08-28T06:42:33.110Z,5.95
2018-08-28T06:45:01.200Z,5.62
2018-08-28T06:47:29.392Z,6.12
2018-08-28T06:49:57.454Z,5.17
2018-08-28T06:52:25.596Z,4.60
2018-08-28T06:54:53.800Z,4.33
2018-08-28T06:57:21.876Z,4.22
2018-08-28T06:59:49.992Z,4.58
2018-08-28T07:02:18.217Z,4.00
2018-08-28T07:04:46.288Z,4.47
2018-08-28T07:07:14.353Z,4.97
2018-08-28T07:09:42.534Z,4.65
2018-08-28T07:12:10.688Z,4.80
2018-08-28T07:14:38.805Z,3.70
2018-08-28T07:17:06.943Z,3.92
2018-08-28T07:19:35.143Z,4.00
2018-08-28T07:22:03.187Z,3.70
2018-08-28T07:24:31.306Z,3.75
2018-08-28T07:26:59.556Z,3.50
2018-08-28T07:29:27.632Z,3.87
2018-08-28T07:31:55.733Z,3.07
2018-08-28T07:34:23.901Z,2.95
2018-08-28T07:36:52.078Z,2.80
2018-08-28T07:39:20.176Z,2.85
2018-08-28T07:41:48.181Z,2.90
2018-08-28T07:44:16.280Z,3.70
2018-08-28T07:46:44.344Z,3.35
2018-08-28T07:49:12.648Z,3.45
2018-08-28T07:51:40.743Z,3.70
2018-08-28T07:54:08.854Z,3.77
2018-08-28T07:56:36.958Z,3.95
2018-08-28T07:59:05.223Z,3.80
2018-08-28T08:01:33.366Z,4.20
2018-08-28T08:04:01.455Z,3.30
2018-08-28T08:06:29.760Z,3.30
2018-08-28T08:08:57.874Z,3.58
2018-08-28T08:11:25.902Z,3.50
2018-08-28T08:13:53.946Z,3.40
2018-08-28T08:16:22.061Z,2.80
2018-08-28T08:18:50.108Z,3.70
2018-08-28T08:21:18.192Z,3.62
2018-08-28T08:23:46.347Z,3.00
2018-08-28T08:26:14.443Z,3.50
2018-08-28T08:28:42.524Z,3.40
2018-08-28T08:31:10.575Z,3.45
2018-08-28T08:33:38.743Z,3.10
2018-08-28T08:36:06.820Z,3.05
2018-08-28T08:38:34.902Z,2.90
2018-08-28T08:41:03.074Z,3.20
2018-08-28T08:43:31.140Z,2.92
2018-08-28T08:45:59.223Z,3.22
2018-08-28T08:48:27.409Z,3.40
2018-08-28T08:50:55.463Z,3.10
2018-08-28T08:53:23.655Z,3.52
2018-08-28T08:55:51.708Z,3.30
2018-08-28T08:58:19.903Z,3.80
2018-08-28T09:00:47.951Z,3.45
2018-08-28T09:03:16.060Z,3.40
2018-08-28T09:05:44.162Z,3.08
2018-08-28T09:08:12.181Z,3.10
2018-08-28T09:10:40.492Z,3.00
2018-08-28T09:13:08.531Z,3.40
2018-08-28T09:15:36.742Z,3.52
2018-08-28T09:18:05.182Z,3.02
2018-08-28T09:20:33.489Z,3.70
2018-08-28T09:23:01.755Z,3.80
2018-08-28T09:25:29.863Z,3.40
2018-08-28T09:27:57.895Z,3.92
2018-08-28T09:30:25.983Z,3.40
2018-08-28T09:32:54.050Z,3.70
2018-08-28T09:35:22.140Z,3.67
2018-08-28T09:37:50.208Z,3.65
2018-08-28T09:40:18.483Z,4.05
2018-08-28T09:42:46.651Z,3.70
2018-08-28T09:45:14.731Z,3.80
2018-08-28T09:47:42.810Z,3.70
2018-08-28T09:50:10.924Z,3.70
2018-08-28T09:52:39.163Z,4.20
2018-08-28T09:55:07.227Z,3.90
2018-08-28T09:57:35.413Z,3.75
2018-08-28T10:00:03.656Z,4.60
2018-08-28T10:02:32.060Z,4.00
2018-08-28T10:05:00.112Z,3.77
2018-08-28T10:07:28.198Z,3.90
2018-08-28T10:09:56.219Z,4.40
2018-08-28T10:12:24.345Z,4.50
2018-08-28T10:14:52.435Z,3.23
2018-08-28T10:17:20.549Z,3.30
2018-08-28T10:19:48.576Z,3.80
2018-08-28T11:04:02.212Z,5.20
2018-08-28T11:06:30.386Z,4.40
2018-08-28T11:08:58.365Z,4.30
2018-08-28T11:11:26.431Z,4.30
2018-08-28T11:13:54.482Z,4.50
2018-08-28T11:16:22.583Z,4.23
2018-08-28T11:18:50.634Z,4.33
2018-08-28T11:21:18.732Z,4.10
2018-08-28T11:23:46.803Z,4.50
2018-08-28T11:26:14.834Z,4.47
2018-08-28T11:28:42.847Z,4.07
2018-08-28T11:31:10.901Z,5.43
2018-08-28T11:33:38.982Z,4.10
2018-08-28T12:17:52.893Z,5.40
2018-08-28T12:20:20.937Z,4.27
2018-08-28T12:25:16.756Z,5.72
2018-08-28T12:27:44.819Z,4.83
2018-08-28T12:30:13.001Z,4.80
2018-08-28T12:32:41.182Z,4.40
2018-08-28T12:35:09.361Z,5.73
2018-08-28T12:37:37.645Z,5.17
2018-08-28T12:40:05.971Z,4.90
2018-08-28T12:42:34.205Z,5.50
2018-08-28T12:45:02.139Z,4.73
2018-08-28T12:47:30.751Z,5.10
2018-08-28T12:49:58.791Z,6.03
2018-08-28T12:52:27.094Z,5.70
2018-08-28T12:54:55.419Z,5.60
2018-08-28T12:57:23.846Z,5.80
2018-08-28T12:59:52.018Z,5.10
2018-08-28T13:02:20.184Z,4.90
2018-08-28T13:04:48.150Z,5.83
2018-08-28T13:07:16.263Z,5.13
2018-08-28T13:09:44.323Z,5.87
2018-08-28T13:12:12.399Z,5.90
2018-08-28T13:14:40.563Z,5.50
2018-08-28T13:17:08.543Z,5.70
2018-08-28T13:19:36.587Z,5.43
2018-08-28T13:22:04.800Z,6.40
2018-08-28T13:24:33.081Z,7.00
2018-08-28T13:27:01.122Z,7.43
2018-08-28T13:29:29.220Z,5.50
2018-08-28T13:31:57.361Z,6.30
2018-08-28T13:34:25.354Z,6.13
2018-08-28T13:36:53.518Z,6.47
2018-08-28T13:39:21.601Z,5.63
2018-08-28T13:41:49.664Z,5.70
2018-08-28T13:44:17.747Z,6.60
2018-08-28T14:48:10.756Z,5.73
2018-08-28T14:50:38.860Z,7.70
2018-08-28T14:53:06.898Z,7.40
2018-08-28T14:55:34.955Z,6.17
2018-08-28T14:58:03.069Z,6.53
2018-08-28T15:00:31.205Z,4.70
2018-08-28T15:02:59.323Z,7.20
2018-08-28T15:05:27.351Z,7.50
2018-08-28T15:07:55.466Z,6.33
2018-08-28T15:10:23.498Z,6.37
2018-08-28T15:12:51.587Z,6.53
2018-08-28T15:15:19.644Z,6.23
2018-08-28T15:17:47.777Z,6.57
2018-08-28T15:20:15.803Z,6.10
2018-08-28T15:22:43.888Z,6.37
2018-08-28T15:25:11.931Z,6.33
2018-08-28T15:27:39.949Z,6.77
2018-08-28T15:30:08.250Z,6.60
2018-08-28T15:32:36.366Z,6.20
2018-08-28T15:35:04.559Z,7.33
2018-08-28T15:37:32.731Z,6.40
2018-08-28T15:40:01.010Z,6.70
2018-08-28T15:42:29.071Z,6.57
2018-08-28T15:44:57.162Z,7.00
2018-08-28T15:47:25.331Z,6.90
2018-08-28T15:49:53.424Z,5.80
2018-08-28T15:52:21.543Z,6.13
